createdAt,value
2022-09-06T00:00:51.087Z,49.40
2022-09-06T00:01:42.986Z,49.30
2022-09-06T00:02:34.885Z,49.30
2022-09-06T00:03:26.720Z,49.30
2022-09-06T00:04:18.607Z,49.40
2022-09-06T00:05:10.463Z,49.70
2022-09-06T00:06:02.318Z,49.50
2022-09-06T00:06:54.219Z,49.50
2022-09-06T00:07:46.073Z,49.40
2022-09-06T00:08:37.952Z,49.30
2022-09-06T00:09:29.819Z,49.40
2022-09-06T00:10:21.700Z,49.40
2022-09-06T00:11:13.528Z,49.50
2022-09-06T00:12:05.442Z,49.70
2022-09-06T00:12:57.304Z,49.60
2022-09-06T00:13:49.188Z,49.60
2022-09-06T00:14:41.042Z,49.70
2022-09-06T00:15:32.982Z,49.80
2022-09-06T00:16:29.706Z,49.80
2022-09-06T00:17:16.674Z,49.70
2022-09-06T00:18:08.536Z,49.60
2022-09-06T00:19:00.383Z,49.70
2022-09-06T00:19:52.276Z,49.70
2022-09-06T00:20:44.169Z,49.70
2022-09-06T00:21:36.017Z,49.70
2022-09-06T00:22:27.907Z,49.70
2022-09-06T00:23:19.758Z,49.70
2022-09-06T00:24:11.644Z,49.80
2022-09-06T00:25:03.423Z,49.80
2022-09-06T00:25:55.391Z,49.80
2022-09-06T00:26:47.227Z,49.80
2022-09-06T00:27:39.146Z,49.80
2022-09-06T00:28:30.969Z,49.90
2022-09-06T00:29:22.852Z,50.00
2022-09-06T00:30:14.715Z,50.00
2022-09-06T00:31:06.650Z,49.90
2022-09-06T00:31:58.479Z,49.80
2022-09-06T00:32:50.341Z,49.80
2022-09-06T00:33:42.212Z,49.80
2022-09-06T00:34:34.003Z,49.80
2022-09-06T00:35:25.942Z,49.80
2022-09-06T00:36:17.841Z,49.80
2022-09-06T00:37:09.692Z,49.70
2022-09-06T00:38:01.587Z,49.60
2022-09-06T00:38:53.360Z,49.60
2022-09-06T00:39:45.345Z,49.60
2022-09-06T00:40:37.184Z,49.60
2022-09-06T00:41:29.064Z,49.60
2022-09-06T00:42:20.941Z,49.70
2022-09-06T00:43:12.809Z,49.70
2022-09-06T00:44:04.652Z,49.70
2022-09-06T00:44:56.532Z,49.70
2022-09-06T00:45:48.437Z,50.20
2022-09-06T00:46:40.320Z,50.20
2022-09-06T00:47:32.123Z,49.80
2022-09-06T00:48:24.004Z,49.80
2022-09-06T00:49:15.858Z,49.90
2022-09-06T00:50:07.757Z,50.00
2022-09-06T00:50:59.588Z,50.00
2022-09-06T00:51:51.482Z,49.90
2022-09-06T00:52:43.318Z,49.80
2022-09-06T00:53:35.212Z,49.80
2022-09-06T00:54:27.071Z,49.80
2022-09-06T00:55:18.975Z,50.50
2022-09-06T00:56:10.797Z,50.10
2022-09-06T00:57:02.701Z,49.90
2022-09-06T00:57:54.554Z,49.90
2022-09-06T00:58:46.418Z,50.20
2022-09-06T00:59:38.296Z,51.00
2022-09-06T01:00:30.184Z,50.10
2022-09-06T01:01:22.135Z,49.90
2022-09-06T01:02:14.056Z,50.00
2022-09-06T01:03:05.759Z,49.90
2022-09-06T01:03:57.646Z,49.90
2022-09-06T01:04:49.520Z,49.90
2022-09-06T01:05:41.420Z,49.90
2022-09-06T01:06:33.301Z,49.90
2022-09-06T01:07:25.126Z,49.90
2022-09-06T01:08:16.997Z,50.00
2022-09-06T01:09:08.865Z,49.90
2022-09-06T01:10:00.650Z,50.00
2022-09-06T01:10:52.599Z,50.00
2022-09-06T01:11:44.465Z,50.00
2022-09-06T01:12:36.340Z,50.00
2022-09-06T01:13:28.252Z,50.00
2022-09-06T01:14:20.065Z,50.00
2022-09-06T01:15:11.964Z,50.00
2022-09-06T01:16:03.808Z,50.60
2022-09-06T01:16:55.692Z,50.10
2022-09-06T01:17:47.549Z,50.00
2022-09-06T01:18:39.427Z,50.10
2022-09-06T01:19:31.310Z,50.10
2022-09-06T01:20:23.159Z,50.00
2022-09-06T01:21:15.063Z,50.10
2022-09-06T01:22:06.889Z,50.00
2022-09-06T01:22:58.766Z,50.00
2022-09-06T01:23:50.624Z,50.00
2022-09-06T01:24:42.501Z,50.10
2022-09-06T01:25:34.355Z,50.20
2022-09-06T01:26:26.236Z,50.80
2022-09-06T01:27:18.103Z,51.30
2022-09-06T01:28:09.981Z,51.10
2022-09-06T01:29:01.846Z,50.50
2022-09-06T01:29:53.624Z,50.30
2022-09-06T01:30:45.624Z,50.10
2022-09-06T01:31:37.455Z,50.10
2022-09-06T01:32:29.322Z,50.10
2022-09-06T01:33:21.191Z,50.40
2022-09-06T01:34:13.067Z,50.60
2022-09-06T01:35:04.933Z,51.30
2022-09-06T01:35:56.821Z,50.80
2022-09-06T01:37:08.272Z,50.50
2022-09-06T01:37:40.546Z,50.50
2022-09-06T01:38:32.434Z,50.40
2022-09-06T01:39:24.293Z,50.50
2022-09-06T01:40:16.142Z,50.50
2022-09-06T01:41:08.012Z,50.50
2022-09-06T01:41:59.894Z,50.50
2022-09-06T01:42:51.763Z,50.60
2022-09-06T01:43:43.586Z,50.50
2022-09-06T01:44:35.485Z,50.50
2022-09-06T01:45:27.356Z,50.50
2022-09-06T01:46:19.306Z,50.50
2022-09-06T01:47:11.079Z,50.60
2022-09-06T01:48:02.946Z,50.50
2022-09-06T01:48:54.818Z,50.50
2022-09-06T01:49:46.690Z,50.40
2022-09-06T01:50:38.570Z,50.50
2022-09-06T01:51:30.405Z,50.50
2022-09-06T01:52:22.326Z,50.50
2022-09-06T01:53:14.112Z,50.50
2022-09-06T01:54:06.012Z,50.50
2022-09-06T01:54:57.875Z,50.60
2022-09-06T01:55:49.758Z,50.70
2022-09-06T01:56:41.589Z,50.60
2022-09-06T01:57:33.490Z,50.60
2022-09-06T01:58:25.385Z,50.60
2022-09-06T01:59:17.206Z,50.70
2022-09-06T02:00:09.063Z,51.10
2022-09-06T02:01:01.053Z,50.70
2022-09-06T02:01:52.805Z,50.70
2022-09-06T02:02:44.672Z,50.70
2022-09-06T02:03:36.476Z,50.80
2022-09-06T02:04:28.398Z,50.90
2022-09-06T02:05:20.254Z,51.20
2022-09-06T02:06:12.135Z,50.80
2022-09-06T02:07:03.903Z,50.80
2022-09-06T02:07:55.857Z,50.80
2022-09-06T02:08:47.685Z,51.10
2022-09-06T02:09:39.584Z,50.80
2022-09-06T02:10:31.417Z,51.60
2022-09-06T02:11:23.346Z,51.20
2022-09-06T02:12:15.178Z,50.80
2022-09-06T02:13:07.056Z,50.70
2022-09-06T02:13:58.930Z,50.80
2022-09-06T02:14:50.803Z,50.80
2022-09-06T02:15:42.660Z,51.10
2022-09-06T02:16:34.623Z,51.10
2022-09-06T02:17:26.389Z,50.80
2022-09-06T02:18:18.293Z,50.70
2022-09-06T02:19:10.135Z,50.70
2022-09-06T02:20:02.063Z,50.70
2022-09-06T02:20:53.804Z,50.70
2022-09-06T02:21:45.768Z,51.10
2022-09-06T02:22:37.598Z,51.90
2022-09-06T02:23:29.476Z,51.20
2022-09-06T02:24:21.335Z,51.50
2022-09-06T02:25:13.240Z,51.40
2022-09-06T02:26:05.074Z,51.20
2022-09-06T02:26:56.976Z,51.00
2022-09-06T02:27:48.816Z,51.10
2022-09-06T02:28:40.708Z,51.90
2022-09-06T02:29:32.532Z,51.00
2022-09-06T02:30:24.433Z,50.80
2022-09-06T02:31:16.277Z,51.30
2022-09-06T02:32:08.143Z,51.80
2022-09-06T02:32:59.992Z,51.60
2022-09-06T02:33:51.869Z,51.60
2022-09-06T02:34:43.649Z,51.60
2022-09-06T02:35:35.665Z,51.50
2022-09-06T02:36:27.452Z,51.60
2022-09-06T02:37:19.346Z,51.30
2022-09-06T02:38:11.152Z,51.80
2022-09-06T02:39:03.056Z,51.30
2022-09-06T02:39:54.935Z,51.40
2022-09-06T02:40:46.772Z,52.00
2022-09-06T02:41:38.637Z,52.10
2022-09-06T02:42:30.519Z,51.70
2022-09-06T02:43:22.345Z,51.40
2022-09-06T02:44:14.198Z,52.10
2022-09-06T02:45:06.008Z,51.90
2022-09-06T02:45:57.980Z,51.10
2022-09-06T02:46:51.816Z,51.00
2022-09-06T02:47:41.673Z,51.00
2022-09-06T02:48:33.559Z,50.90
2022-09-06T02:49:25.411Z,51.90
2022-09-06T02:50:17.250Z,51.60
2022-09-06T02:51:09.116Z,51.10
2022-09-06T02:52:00.866Z,51.40
2022-09-06T02:52:52.851Z,52.50
2022-09-06T02:53:44.693Z,51.80
2022-09-06T02:54:36.577Z,51.20
2022-09-06T02:55:28.428Z,51.10
2022-09-06T02:56:20.348Z,51.10
2022-09-06T02:57:12.145Z,51.00
2022-09-06T02:58:03.941Z,52.10
2022-09-06T02:58:55.867Z,52.20
2022-09-06T02:59:47.746Z,52.10
2022-09-06T03:00:39.602Z,51.60
2022-09-06T03:01:31.589Z,51.60
2022-09-06T03:02:23.372Z,51.40
2022-09-06T03:03:15.218Z,52.00
2022-09-06T03:04:07.087Z,52.10
2022-09-06T03:04:58.956Z,51.90
2022-09-06T03:05:50.817Z,51.70
2022-09-06T03:06:42.691Z,51.20
2022-09-06T03:07:34.541Z,51.90
2022-09-06T03:08:26.678Z,51.90
2022-09-06T03:09:18.267Z,51.50
2022-09-06T03:10:10.124Z,51.30
2022-09-06T03:11:02.005Z,51.10
2022-09-06T03:11:53.793Z,51.20
2022-09-06T03:12:45.713Z,51.50
2022-09-06T03:13:37.573Z,51.20
2022-09-06T03:14:29.438Z,51.90
2022-09-06T03:15:21.316Z,51.80
2022-09-06T03:16:13.220Z,51.80
2022-09-06T03:17:05.139Z,51.20
2022-09-06T03:17:56.890Z,51.10
2022-09-06T03:18:48.779Z,51.50
2022-09-06T03:19:40.619Z,51.90
2022-09-06T03:20:36.826Z,51.60
2022-09-06T03:21:24.309Z,51.30
2022-09-06T03:22:16.228Z,50.90
2022-09-06T03:23:08.099Z,51.80
2022-09-06T03:23:59.974Z,51.60
2022-09-06T03:24:51.799Z,51.70
2022-09-06T03:25:43.600Z,51.90
2022-09-06T03:26:35.544Z,51.90
2022-09-06T03:27:27.397Z,52.10
2022-09-06T03:28:19.257Z,51.80
2022-09-06T03:29:11.139Z,51.50
2022-09-06T03:30:02.919Z,51.20
2022-09-06T03:30:54.886Z,51.00
2022-09-06T03:31:46.709Z,51.00
2022-09-06T03:32:38.581Z,51.20
2022-09-06T03:33:30.426Z,51.60
2022-09-06T03:34:22.295Z,51.90
2022-09-06T03:35:14.095Z,51.70
2022-09-06T03:36:06.036Z,51.10
2022-09-06T03:36:57.902Z,50.90
2022-09-06T03:37:49.754Z,51.00
2022-09-06T03:38:41.615Z,51.30
2022-09-06T03:39:33.518Z,51.20
2022-09-06T03:40:25.341Z,51.00
2022-09-06T03:41:17.201Z,50.90
2022-09-06T03:42:09.051Z,50.70
2022-09-06T03:43:00.893Z,50.70
2022-09-06T03:43:52.799Z,50.80
2022-09-06T03:44:44.670Z,50.70
2022-09-06T03:45:36.541Z,50.90
2022-09-06T03:46:28.397Z,50.60
2022-09-06T03:47:20.259Z,50.80
2022-09-06T03:48:12.112Z,51.10
2022-09-06T03:49:03.880Z,51.20
2022-09-06T03:49:55.836Z,50.80
2022-09-06T03:50:47.704Z,50.40
2022-09-06T03:51:39.614Z,50.50
2022-09-06T03:52:31.433Z,50.60
2022-09-06T03:53:23.305Z,50.80
2022-09-06T03:54:15.182Z,51.10
2022-09-06T03:55:07.060Z,50.90
2022-09-06T03:55:58.896Z,51.10
2022-09-06T03:56:50.804Z,50.80
2022-09-06T03:57:42.631Z,50.80
2022-09-06T03:58:34.448Z,51.30
2022-09-06T03:59:26.355Z,50.80
2022-09-06T04:00:18.233Z,50.90
2022-09-06T04:01:10.165Z,50.70
2022-09-06T04:02:02.015Z,50.60
2022-09-06T04:02:53.742Z,51.20
2022-09-06T04:03:45.711Z,50.30
2022-09-06T04:04:37.562Z,50.20
2022-09-06T04:05:29.415Z,50.40
2022-09-06T04:06:21.290Z,51.00
2022-09-06T04:07:13.148Z,50.40
2022-09-06T04:08:05.001Z,50.40
2022-09-06T04:08:56.877Z,50.10
2022-09-06T04:09:48.717Z,49.80
2022-09-06T04:10:40.624Z,49.90
2022-09-06T04:11:32.455Z,49.90
2022-09-06T04:12:24.239Z,50.20
2022-09-06T04:13:16.170Z,49.90
2022-09-06T04:14:08.040Z,49.90
2022-09-06T04:14:59.889Z,49.60
2022-09-06T04:15:51.767Z,50.20
2022-09-06T04:16:43.671Z,49.90
2022-09-06T04:17:35.462Z,49.70
2022-09-06T04:18:27.462Z,50.60
2022-09-06T04:19:19.187Z,50.30
2022-09-06T04:20:11.049Z,50.30
2022-09-06T04:21:02.907Z,50.60
2022-09-06T04:21:54.723Z,50.30
2022-09-06T04:22:46.645Z,50.70
2022-09-06T04:23:40.106Z,50.20
2022-09-06T04:24:30.362Z,49.70
2022-09-06T04:25:22.221Z,49.60
2022-09-06T04:26:14.024Z,49.80
2022-09-06T04:27:05.942Z,49.80
2022-09-06T04:27:57.840Z,51.00
2022-09-06T04:28:49.677Z,51.10
2022-09-06T04:29:41.549Z,51.00
2022-09-06T04:30:33.416Z,50.80
2022-09-06T04:31:25.334Z,50.90
2022-09-06T04:32:17.131Z,50.90
2022-09-06T04:33:09.011Z,51.20
2022-09-06T04:34:00.859Z,51.10
2022-09-06T04:34:52.752Z,51.10
2022-09-06T04:35:44.593Z,51.00
2022-09-06T04:36:36.463Z,50.50
2022-09-06T04:37:28.327Z,50.30
2022-09-06T04:38:20.216Z,50.90
2022-09-06T04:39:12.067Z,50.50
2022-09-06T04:40:04.011Z,51.00
2022-09-06T04:40:55.799Z,50.90
2022-09-06T04:41:47.671Z,51.00
2022-09-06T04:42:39.530Z,51.30
2022-09-06T04:43:31.412Z,51.30
2022-09-06T04:44:23.276Z,51.30
2022-09-06T04:45:15.133Z,50.90
2022-09-06T04:46:07.064Z,50.80
2022-09-06T04:46:58.872Z,50.70
2022-09-06T04:47:50.724Z,50.70
2022-09-06T04:48:42.602Z,50.80
2022-09-06T04:49:34.411Z,50.80
2022-09-06T04:50:26.338Z,51.20
2022-09-06T04:51:18.203Z,51.60
2022-09-06T04:52:10.060Z,51.80
2022-09-06T04:53:01.929Z,51.90
2022-09-06T04:53:53.789Z,52.00
2022-09-06T04:54:45.645Z,51.90
2022-09-06T04:55:37.534Z,52.10
2022-09-06T04:56:29.398Z,51.70
2022-09-06T04:57:21.267Z,51.00
2022-09-06T04:58:13.124Z,51.10
2022-09-06T04:59:05.012Z,51.00
2022-09-06T04:59:56.871Z,51.60
2022-09-06T05:00:48.806Z,51.60
2022-09-06T05:01:40.604Z,51.40
2022-09-06T05:02:32.548Z,51.60
2022-09-06T05:03:24.253Z,51.60
2022-09-06T05:04:16.219Z,51.60
2022-09-06T05:05:08.073Z,51.80
2022-09-06T05:12:03.100Z,50.40
2022-09-06T05:12:54.906Z,50.70
2022-09-06T05:13:46.752Z,50.40
2022-09-06T05:14:38.625Z,50.40
2022-09-06T05:15:30.481Z,50.50
2022-09-06T05:16:22.427Z,51.10
2022-09-06T05:17:14.130Z,52.30
2022-09-06T05:18:06.102Z,52.60
2022-09-06T05:18:57.951Z,52.60
2022-09-06T05:19:49.835Z,52.50
2022-09-06T05:20:41.693Z,52.50
2022-09-06T05:21:33.586Z,52.70
2022-09-06T05:22:25.441Z,52.60
2022-09-06T05:23:17.356Z,52.60
2022-09-06T05:24:09.207Z,52.50
2022-09-06T05:25:00.995Z,52.30
2022-09-06T05:25:52.931Z,52.30
2022-09-06T05:26:44.839Z,52.50
2022-09-06T05:27:36.695Z,52.60
2022-09-06T05:28:28.693Z,52.00
2022-09-06T05:29:20.463Z,51.70
2022-09-06T05:30:12.315Z,51.50
2022-09-06T05:31:04.130Z,51.60
2022-09-06T05:31:56.195Z,51.90
2022-09-06T05:32:47.937Z,52.40
2022-09-06T05:33:39.801Z,52.90
2022-09-06T05:34:31.671Z,52.20
2022-09-06T05:35:23.557Z,52.30
2022-09-06T05:36:15.429Z,52.80
2022-09-06T05:37:07.302Z,53.70
2022-09-06T05:37:59.162Z,54.00
2022-09-06T05:38:51.042Z,54.00
2022-09-06T05:39:42.975Z,54.10
2022-09-06T05:40:34.807Z,54.00
2022-09-06T05:41:26.664Z,53.80
2022-09-06T05:42:19.375Z,53.60
2022-09-06T05:43:10.413Z,53.70
2022-09-06T05:44:02.304Z,53.90
2022-09-06T05:44:54.164Z,54.00
2022-09-06T05:45:46.105Z,53.90
2022-09-06T05:46:37.921Z,54.00
2022-09-06T05:47:29.844Z,54.30
2022-09-06T05:48:21.756Z,54.40
2022-09-06T05:49:13.584Z,54.50
2022-09-06T05:50:05.438Z,54.70
2022-09-06T05:50:57.351Z,54.10
2022-09-06T05:51:49.214Z,54.10
2022-09-06T05:52:41.111Z,54.40
2022-09-06T05:53:32.967Z,54.70
2022-09-06T05:54:24.851Z,54.90
2022-09-06T05:55:16.722Z,54.90
2022-09-06T05:56:08.633Z,54.90
2022-09-06T05:57:00.508Z,54.90
2022-09-06T05:57:52.387Z,55.10
2022-09-06T05:58:44.177Z,55.10
2022-09-06T05:59:36.159Z,54.50
2022-09-06T06:00:28.058Z,54.70
2022-09-06T06:01:19.981Z,55.10
2022-09-06T06:02:11.799Z,55.00
2022-09-06T06:03:03.648Z,54.50
2022-09-06T06:03:55.532Z,54.10
2022-09-06T06:04:47.400Z,54.00
2022-09-06T06:05:39.274Z,54.10
2022-09-06T06:06:31.167Z,54.30
2022-09-06T06:07:23.019Z,55.10
2022-09-06T06:08:14.890Z,55.60
2022-09-06T06:09:06.803Z,55.80
2022-09-06T06:09:58.648Z,55.80
2022-09-06T06:10:50.517Z,55.70
2022-09-06T06:11:42.409Z,55.70
2022-09-06T06:12:34.196Z,55.30
2022-09-06T06:13:26.156Z,54.70
2022-09-06T06:14:18.059Z,54.70
2022-09-06T06:15:09.908Z,54.50
2022-09-06T06:16:01.813Z,54.40
2022-09-06T06:16:53.721Z,54.40
2022-09-06T06:17:45.534Z,54.60
2022-09-06T06:18:37.423Z,54.60
2022-09-06T06:19:29.286Z,54.50
2022-09-06T06:20:21.168Z,54.40
2022-09-06T06:21:13.023Z,54.40
2022-09-06T06:22:04.932Z,54.30
2022-09-06T06:22:56.807Z,54.30
2022-09-06T06:23:48.692Z,54.30
2022-09-06T06:24:40.535Z,54.60
2022-09-06T06:25:32.438Z,55.70
2022-09-06T06:26:24.217Z,55.90
2022-09-06T06:27:16.190Z,55.80
2022-09-06T06:28:08.057Z,55.80
2022-09-06T06:28:59.951Z,55.80
2022-09-06T06:29:51.808Z,55.70
2022-09-06T06:30:43.696Z,55.70
2022-09-06T06:31:35.637Z,55.80
2022-09-06T06:32:27.465Z,56.00
2022-09-06T06:33:19.330Z,55.90
2022-09-06T06:34:11.224Z,56.10
2022-09-06T06:35:03.072Z,55.90
2022-09-06T06:35:54.997Z,56.00
2022-09-06T06:36:46.856Z,55.70
2022-09-06T06:37:38.722Z,55.30
2022-09-06T06:38:30.594Z,55.20
2022-09-06T06:39:22.488Z,55.90
2022-09-06T06:40:14.353Z,56.10
2022-09-06T06:41:07.151Z,56.10
2022-09-06T06:41:58.101Z,56.10
2022-09-06T06:42:49.978Z,55.60
2022-09-06T06:43:41.860Z,55.80
2022-09-06T06:44:33.760Z,56.00
2022-09-06T06:45:25.666Z,56.40
2022-09-06T06:46:17.555Z,56.60
2022-09-06T06:47:09.355Z,56.00
2022-09-06T06:48:01.179Z,55.60
2022-09-06T06:48:54.893Z,55.70
2022-09-06T06:49:44.997Z,55.80
2022-09-06T06:50:36.855Z,55.90
2022-09-06T06:51:28.733Z,55.90
2022-09-06T06:52:20.603Z,55.90
2022-09-06T06:53:12.488Z,56.00
2022-09-06T06:54:04.290Z,56.40
2022-09-06T06:54:56.228Z,55.90
2022-09-06T06:55:48.097Z,55.70
2022-09-06T06:56:39.978Z,55.60
2022-09-06T06:57:31.826Z,55.60
2022-09-06T06:58:23.774Z,55.80
2022-09-06T06:59:15.585Z,55.90
2022-09-06T07:00:07.445Z,56.10
2022-09-06T07:00:59.425Z,56.60
2022-09-06T07:01:51.345Z,57.20
2022-09-06T07:02:43.032Z,57.30
2022-09-06T07:03:34.909Z,57.20
2022-09-06T07:04:26.765Z,57.00
2022-09-06T07:06:10.823Z,57.00
2022-09-06T07:07:32.221Z,57.10
2022-09-06T07:07:54.269Z,57.10
2022-09-06T07:08:46.145Z,57.40
2022-09-06T07:10:33.084Z,57.00
2022-09-06T07:11:24.383Z,56.90
2022-09-06T07:12:13.621Z,56.80
2022-09-06T07:13:05.489Z,56.70
2022-09-06T07:13:57.373Z,56.60
2022-09-06T07:14:49.213Z,56.60
2022-09-06T07:15:41.089Z,57.50
2022-09-06T07:16:33.070Z,57.70
2022-09-06T07:17:24.851Z,57.70
2022-09-06T07:18:16.698Z,57.30
2022-09-06T07:19:09.320Z,56.90
2022-09-06T07:20:16.190Z,56.80
2022-09-06T07:21:44.118Z,57.00
2022-09-06T07:22:36.091Z,57.60
2022-09-06T07:24:19.823Z,57.50
2022-09-06T07:25:12.735Z,57.60
2022-09-06T07:26:03.662Z,57.60
2022-09-06T07:27:48.340Z,57.50
2022-09-06T07:28:39.219Z,57.40
2022-09-06T07:29:31.126Z,57.40
2022-09-06T07:30:22.982Z,57.10
2022-09-06T07:32:58.625Z,57.60
2022-09-06T07:33:53.856Z,57.30
2022-09-06T07:34:42.395Z,57.30
2022-09-06T07:35:34.209Z,57.20
2022-09-06T07:36:26.164Z,57.20
2022-09-06T07:37:18.039Z,57.40
2022-09-06T07:38:09.924Z,57.50
2022-09-06T07:39:01.742Z,57.50
2022-09-06T07:39:53.800Z,57.20
2022-09-06T07:40:45.611Z,57.20
2022-09-06T07:41:37.482Z,57.10
2022-09-06T07:42:32.761Z,57.00
2022-09-06T07:43:21.262Z,57.00
2022-09-06T07:44:13.133Z,56.90
2022-09-06T07:45:05.035Z,56.70
2022-09-06T07:45:56.956Z,56.60
2022-09-06T07:46:48.963Z,56.40
2022-09-06T07:48:32.566Z,56.30
2022-09-06T07:49:24.395Z,56.40
2022-09-06T07:51:08.215Z,56.30
2022-09-06T07:52:00.277Z,56.50
2022-09-06T07:53:08.538Z,56.30
2022-09-06T07:53:43.874Z,56.20
2022-09-06T07:54:35.768Z,56.20
2022-09-06T07:55:27.655Z,55.60
2022-09-06T07:56:19.506Z,55.30
2022-09-06T07:57:11.401Z,55.30
2022-09-06T07:58:03.271Z,55.60
2022-09-06T07:58:55.163Z,56.00
2022-09-06T07:59:47.036Z,55.60
2022-09-06T08:00:38.972Z,55.60
2022-09-06T08:01:30.868Z,55.50
2022-09-06T08:02:22.770Z,56.20
2022-09-06T08:03:14.474Z,55.80
2022-09-06T08:04:06.450Z,55.50
2022-09-06T08:04:58.321Z,55.30
2022-09-06T08:06:10.881Z,55.10
2022-09-06T08:07:41.035Z,55.20
2022-09-06T08:09:17.717Z,55.10
2022-09-06T08:10:09.579Z,54.80
2022-09-06T08:11:01.447Z,54.80
2022-09-06T08:11:53.333Z,55.00
2022-09-06T08:12:45.222Z,55.30
2022-09-06T08:13:37.101Z,55.30
2022-09-06T08:14:28.984Z,55.30
2022-09-06T08:15:20.869Z,55.30
2022-09-06T08:16:12.823Z,55.60
2022-09-06T08:17:04.575Z,55.60
2022-09-06T08:17:56.514Z,55.40
2022-09-06T08:18:48.390Z,55.40
2022-09-06T08:19:40.304Z,54.80
2022-09-06T08:20:32.157Z,54.40
2022-09-06T08:21:24.031Z,54.00
2022-09-06T08:22:15.917Z,54.00
2022-09-06T08:23:07.819Z,54.00
2022-09-06T08:23:59.687Z,54.00
2022-09-06T08:24:51.575Z,54.10
2022-09-06T08:25:43.440Z,54.00
2022-09-06T08:26:35.331Z,53.70
2022-09-06T08:27:27.199Z,53.50
2022-09-06T08:28:19.120Z,54.20
2022-09-06T08:29:11.039Z,54.70
2022-09-06T08:30:02.791Z,54.80
2022-09-06T08:30:54.677Z,55.00
2022-09-06T08:31:46.740Z,54.80
2022-09-06T08:32:38.518Z,54.70
2022-09-06T08:33:30.409Z,54.70
2022-09-06T08:34:22.289Z,54.60
2022-09-06T08:35:14.207Z,54.30
2022-09-06T08:36:05.970Z,54.40
2022-09-06T08:36:57.951Z,54.50
2022-09-06T08:37:49.841Z,54.60
2022-09-06T08:38:41.746Z,54.50
2022-09-06T08:39:33.657Z,54.20
2022-09-06T08:40:25.514Z,53.80
2022-09-06T08:41:17.383Z,53.80
2022-09-06T08:42:09.307Z,53.70
2022-09-06T08:43:01.190Z,54.50
2022-09-06T08:44:58.359Z,54.10
2022-09-06T08:45:36.852Z,54.10
2022-09-06T08:46:28.749Z,54.20
2022-09-06T08:47:20.631Z,53.90
2022-09-06T08:48:12.507Z,53.70
2022-09-06T08:49:04.322Z,53.80
2022-09-06T08:49:56.305Z,53.90
2022-09-06T08:50:48.172Z,53.90
2022-09-06T08:51:40.071Z,53.60
2022-09-06T08:52:31.944Z,53.60
2022-09-06T08:53:23.860Z,53.70
2022-09-06T08:54:15.748Z,53.90
2022-09-06T08:55:07.594Z,53.90
2022-09-06T08:55:59.510Z,53.90
2022-09-06T08:56:51.403Z,54.00
2022-09-06T08:57:43.280Z,54.00
2022-09-06T08:58:35.163Z,53.80
2022-09-06T08:59:27.067Z,53.40
2022-09-06T09:00:18.946Z,53.60
2022-09-06T09:01:10.906Z,53.70
2022-09-06T09:02:02.781Z,53.80
2022-09-06T09:02:54.571Z,53.80
2022-09-06T09:03:46.533Z,53.80
2022-09-06T09:04:38.431Z,53.90
2022-09-06T09:05:30.327Z,53.80
2022-09-06T09:06:22.158Z,53.60
2022-09-06T09:07:14.107Z,53.80
2022-09-06T09:08:05.990Z,53.70
2022-09-06T09:08:57.885Z,53.60
2022-09-06T09:09:49.794Z,53.00
2022-09-06T09:10:41.689Z,53.10
2022-09-06T09:11:33.637Z,53.30
2022-09-06T09:12:25.393Z,53.10
2022-09-06T09:13:17.364Z,53.40
2022-09-06T09:14:09.243Z,53.40
2022-09-06T09:15:01.171Z,52.10
2022-09-06T09:15:52.996Z,52.20
2022-09-06T09:16:44.897Z,52.60
2022-09-06T09:17:36.835Z,52.70
2022-09-06T09:18:28.875Z,52.20
2022-09-06T09:19:20.616Z,52.90
2022-09-06T09:20:12.525Z,52.70
2022-09-06T09:21:04.313Z,52.60
2022-09-06T09:21:56.740Z,52.60
2022-09-06T09:22:48.184Z,52.90
2022-09-06T09:23:40.102Z,52.70
2022-09-06T09:24:31.992Z,52.70
2022-09-06T09:25:23.891Z,52.70
2022-09-06T09:26:15.787Z,52.80
2022-09-06T09:27:07.678Z,52.50
2022-09-06T09:27:59.587Z,52.50
2022-09-06T09:28:51.473Z,52.50
2022-09-06T09:30:49.992Z,51.10
2022-09-06T09:31:27.206Z,51.60
2022-09-06T09:32:19.056Z,51.90
2022-09-06T09:33:10.944Z,52.10
2022-09-06T09:34:02.852Z,52.40
2022-09-06T09:34:54.662Z,52.60
2022-09-06T09:35:46.662Z,52.40
2022-09-06T09:36:38.523Z,52.60
2022-09-06T09:37:46.419Z,52.70
2022-09-06T09:38:22.417Z,52.70
2022-09-06T09:39:14.263Z,52.70
2022-09-06T09:40:06.227Z,52.50
2022-09-06T09:40:58.058Z,52.60
2022-09-06T09:41:49.935Z,52.80
2022-09-06T09:42:41.856Z,52.70
2022-09-06T09:43:33.741Z,52.60
2022-09-06T09:44:25.677Z,52.70
2022-09-06T09:45:17.551Z,52.70
2022-09-06T09:46:09.511Z,52.80
2022-09-06T09:47:01.412Z,52.70
2022-09-06T09:47:53.283Z,52.70
2022-09-06T09:48:45.168Z,52.60
2022-09-06T09:49:37.076Z,52.70
2022-09-06T09:50:28.975Z,52.70
2022-09-06T09:51:26.179Z,52.60
2022-09-06T09:52:12.780Z,52.70
2022-09-06T09:53:04.641Z,52.70
2022-09-06T09:53:56.596Z,52.80
2022-09-06T09:54:48.426Z,52.60
2022-09-06T09:55:40.403Z,52.80
2022-09-06T09:56:32.310Z,52.70
2022-09-06T09:57:24.226Z,52.70
2022-09-06T09:58:16.138Z,52.70
2022-09-06T09:59:08.004Z,52.70
2022-09-06T09:59:59.935Z,52.70
2022-09-06T10:00:51.879Z,52.80
2022-09-06T10:01:43.751Z,52.70
2022-09-06T10:02:35.633Z,52.70
2022-09-06T10:03:27.680Z,52.70
2022-09-06T10:04:44.791Z,52.80
2022-09-06T10:05:11.357Z,52.70
2022-09-06T10:06:03.672Z,52.80
2022-09-06T10:07:10.513Z,52.60
2022-09-06T10:07:47.048Z,52.60
2022-09-06T10:08:38.971Z,52.80
2022-09-06T10:09:30.935Z,52.40
2022-09-06T10:10:22.788Z,52.40
2022-09-06T10:11:14.601Z,52.40
2022-09-06T10:12:06.589Z,52.70
2022-09-06T10:12:58.429Z,52.50
2022-09-06T10:13:50.396Z,52.60
2022-09-06T10:14:42.305Z,52.50
2022-09-06T10:15:34.215Z,52.70
2022-09-06T10:16:26.164Z,52.70
2022-09-06T10:17:18.018Z,52.60
2022-09-06T10:18:09.918Z,52.50
2022-09-06T10:19:01.744Z,52.70
2022-09-06T10:19:53.726Z,52.50
2022-09-06T10:20:45.630Z,52.70
2022-09-06T10:21:37.527Z,52.60
2022-09-06T10:22:29.452Z,52.50
2022-09-06T10:24:28.626Z,52.50
2022-09-06T10:25:05.158Z,52.50
2022-09-06T10:25:57.068Z,52.60
2022-09-06T10:26:48.979Z,52.60
2022-09-06T10:27:55.506Z,52.60
2022-09-06T10:28:32.804Z,52.50
2022-09-06T10:29:24.627Z,52.60
2022-09-06T10:30:16.580Z,52.60
2022-09-06T10:31:08.584Z,52.60
2022-09-06T10:32:00.338Z,52.70
2022-09-06T10:32:52.305Z,52.60
2022-09-06T10:33:44.221Z,52.50
2022-09-06T10:34:36.134Z,52.50
2022-09-06T10:35:28.042Z,52.50
2022-09-06T10:36:19.942Z,52.60
2022-09-06T10:37:11.843Z,52.50
2022-09-06T10:38:03.771Z,52.40
2022-09-06T10:38:57.545Z,52.50
2022-09-06T10:39:47.624Z,52.50
2022-09-06T10:40:39.464Z,52.60
2022-09-06T10:41:31.389Z,52.60
2022-09-06T10:42:23.292Z,52.60
2022-09-06T10:43:15.269Z,52.60
2022-09-06T10:44:07.095Z,52.70
2022-09-06T10:44:59.027Z,52.60
2022-09-06T10:45:50.919Z,52.50
2022-09-06T10:46:42.879Z,52.50
2022-09-06T10:47:34.673Z,52.40
2022-09-06T10:48:26.767Z,52.60
2022-09-06T10:49:18.531Z,52.60
2022-09-06T10:50:10.465Z,52.50
2022-09-06T10:51:02.347Z,52.50
2022-09-06T10:51:54.314Z,52.30
2022-09-06T10:52:46.122Z,52.20
2022-09-06T10:53:38.110Z,52.30
2022-09-06T10:54:30.011Z,52.30
2022-09-06T10:55:21.939Z,52.20
2022-09-06T10:56:13.819Z,52.10
2022-09-06T10:57:05.946Z,52.10
2022-09-06T10:58:18.419Z,52.10
2022-09-06T10:59:41.441Z,52.10
2022-09-06T11:00:33.351Z,52.10
2022-09-06T11:01:25.339Z,51.90
2022-09-06T11:02:17.354Z,51.80
2022-09-06T11:04:04.488Z,51.60
2022-09-06T11:05:44.740Z,51.00
2022-09-06T11:06:36.703Z,51.10
2022-09-06T11:07:28.630Z,51.10
2022-09-06T11:08:47.723Z,51.10
2022-09-06T11:09:12.437Z,51.00
2022-09-06T11:10:04.310Z,50.70
2022-09-06T11:10:56.254Z,50.50
2022-09-06T11:11:48.157Z,50.50
2022-09-06T11:12:40.076Z,50.70
2022-09-06T11:13:31.969Z,50.60
2022-09-06T11:14:23.916Z,50.40
2022-09-06T11:15:15.793Z,50.40
2022-09-06T11:16:07.762Z,50.10
2022-09-06T11:16:59.618Z,50.00
2022-09-06T11:17:51.533Z,50.00
2022-09-06T11:18:43.423Z,50.00
2022-09-06T11:19:35.295Z,49.80
2022-09-06T11:20:31.398Z,49.80
2022-09-06T11:21:19.588Z,49.70
2022-09-06T11:22:11.062Z,49.90
2022-09-06T11:23:02.989Z,49.90
2022-09-06T11:23:54.846Z,50.00
2022-09-06T11:24:46.806Z,50.10
2022-09-06T11:25:38.719Z,50.00
2022-09-06T11:26:30.627Z,50.00
2022-09-06T11:27:22.528Z,49.70
2022-09-06T11:28:14.437Z,49.90
2022-09-06T11:29:06.350Z,49.60